sensor_id;sensor_type;location;lat;lon;timestamp;temperature;humidity
33761;DHT22;20084;47.912;19.044;2022-08-14T00:00:53;17.50;99.90
33761;DHT22;20084;47.912;19.044;2022-08-14T00:03:25;17.50;99.90
33761;DHT22;20084;47.912;19.044;2022-08-14T00:05:51;17.50;99.90
33761;DHT22;20084;47.912;19.044;2022-08-14T00:08:17;17.50;99.90
33761;DHT22;20084;47.912;19.044;2022-08-14T00:10:43;17.50;99.90
33761;DHT22;20084;47.912;19.044;2022-08-14T00:13:10;17.50;99.90
33761;DHT22;20084;47.912;19.044;2022-08-14T00:15:39;17.40;99.90
33761;DHT22;20084;47.912;19.044;2022-08-14T00:18:08;17.40;99.90
33761;DHT22;20084;47.912;19.044;2022-08-14T00:20:37;17.40;99.90
33761;DHT22;20084;47.912;19.044;2022-08-14T00:23:05;17.40;99.90
33761;DHT22;20084;47.912;19.044;2022-08-14T00:25:31;17.50;99.90
33761;DHT22;20084;47.912;19.044;2022-08-14T00:27:56;17.50;99.90
33761;DHT22;20084;47.912;19.044;2022-08-14T00:30:22;17.50;99.90
33761;DHT22;20084;47.912;19.044;2022-08-14T00:32:48;17.50;99.90
33761;DHT22;20084;47.912;19.044;2022-08-14T00:35:14;17.40;99.90
33761;DHT22;20084;47.912;19.044;2022-08-14T00:37:41;17.40;99.90
33761;DHT22;20084;47.912;19.044;2022-08-14T00:40:09;17.40;99.90
33761;DHT22;20084;47.912;19.044;2022-08-14T00:42:35;17.30;99.90
33761;DHT22;20084;47.912;19.044;2022-08-14T00:45:02;17.30;99.90
33761;DHT22;20084;47.912;19.044;2022-08-14T00:47:28;17.30;99.90
33761;DHT22;20084;47.912;19.044;2022-08-14T00:49:54;17.30;99.90
33761;DHT22;20084;47.912;19.044;2022-08-14T00:52:24;17.30;99.90
33761;DHT22;20084;47.912;19.044;2022-08-14T00:54:51;17.20;99.90
33761;DHT22;20084;47.912;19.044;2022-08-14T00:57:23;17.10;99.90
33761;DHT22;20084;47.912;19.044;2022-08-14T00:59:49;17.10;99.90
33761;DHT22;20084;47.912;19.044;2022-08-14T01:02:17;17.10;99.90
33761;DHT22;20084;47.912;19.044;2022-08-14T01:04:44;17.10;99.90
33761;DHT22;20084;47.912;19.044;2022-08-14T01:07:11;17.10;99.90
33761;DHT22;20084;47.912;19.044;2022-08-14T01:09:44;17.10;99.90
33761;DHT22;20084;47.912;19.044;2022-08-14T01:12:11;17.10;99.90
33761;DHT22;20084;47.912;19.044;2022-08-14T01:14:37;17.10;99.90
33761;DHT22;20084;47.912;19.044;2022-08-14T01:17:03;17.10;99.90
33761;DHT22;20084;47.912;19.044;2022-08-14T01:19:29;17.10;99.90
33761;DHT22;20084;47.912;19.044;2022-08-14T01:22:13;17.20;99.90
33761;DHT22;20084;47.912;19.044;2022-08-14T01:24:40;17.10;99.90
33761;DHT22;20084;47.912;19.044;2022-08-14T01:27:06;17.10;99.90
33761;DHT22;20084;47.912;19.044;2022-08-14T01:29:38;17.10;99.90
33761;DHT22;20084;47.912;19.044;2022-08-14T01:32:04;17.10;99.90
33761;DHT22;20084;47.912;19.044;2022-08-14T01:34:30;17.10;99.90
33761;DHT22;20084;47.912;19.044;2022-08-14T01:36:58;17.10;99.90
33761;DHT22;20084;47.912;19.044;2022-08-14T01:39:24;17.00;99.90
33761;DHT22;20084;47.912;19.044;2022-08-14T01:41:50;17.00;99.90
33761;DHT22;20084;47.912;19.044;2022-08-14T01:44:26;17.00;99.90
33761;DHT22;20084;47.912;19.044;2022-08-14T01:46:55;17.00;99.90
33761;DHT22;20084;47.912;19.044;2022-08-14T01:49:23;17.00;99.90
33761;DHT22;20084;47.912;19.044;2022-08-14T01:51:50;17.00;99.90
33761;DHT22;20084;47.912;19.044;2022-08-14T01:54:23;17.00;99.90
33761;DHT22;20084;47.912;19.044;2022-08-14T01:56:53;17.00;99.90
33761;DHT22;20084;47.912;19.044;2022-08-14T01:59:26;16.90;99.90
33761;DHT22;20084;47.912;19.044;2022-08-14T02:01:57;17.00;99.90
33761;DHT22;20084;47.912;19.044;2022-08-14T02:04:29;16.80;99.90
33761;DHT22;20084;47.912;19.044;2022-08-14T02:06:58;16.80;99.90
33761;DHT22;20084;47.912;19.044;2022-08-14T02:09:24;16.80;99.90
33761;DHT22;20084;47.912;19.044;2022-08-14T02:11:51;16.70;99.90
33761;DHT22;20084;47.912;19.044;2022-08-14T02:14:17;16.70;99.90
33761;DHT22;20084;47.912;19.044;2022-08-14T02:16:48;16.70;99.90
33761;DHT22;20084;47.912;19.044;2022-08-14T02:19:22;16.80;99.90
33761;DHT22;20084;47.912;19.044;2022-08-14T02:21:50;16.80;99.90
33761;DHT22;20084;47.912;19.044;2022-08-14T02:24:19;16.80;99.90
33761;DHT22;20084;47.912;19.044;2022-08-14T02:26:46;16.80;99.90
33761;DHT22;20084;47.912;19.044;2022-08-14T02:29:19;16.80;99.90
33761;DHT22;20084;47.912;19.044;2022-08-14T02:31:48;16.70;99.90
33761;DHT22;20084;47.912;19.044;2022-08-14T02:34:17;16.60;99.90
33761;DHT22;20084;47.912;19.044;2022-08-14T02:36:45;16.60;99.90
33761;DHT22;20084;47.912;19.044;2022-08-14T02:39:12;16.60;99.90
33761;DHT22;20084;47.912;19.044;2022-08-14T02:41:39;16.60;99.90
33761;DHT22;20084;47.912;19.044;2022-08-14T02:44:06;16.60;99.90
33761;DHT22;20084;47.912;19.044;2022-08-14T02:46:33;16.70;99.90
33761;DHT22;20084;47.912;19.044;2022-08-14T02:49:00;16.70;99.90
33761;DHT22;20084;47.912;19.044;2022-08-14T02:51:28;16.70;99.90
33761;DHT22;20084;47.912;19.044;2022-08-14T02:53:55;16.70;99.90
33761;DHT22;20084;47.912;19.044;2022-08-14T02:56:23;16.60;99.90
33761;DHT22;20084;47.912;19.044;2022-08-14T02:58:50;16.60;99.90
33761;DHT22;20084;47.912;19.044;2022-08-14T03:01:18;16.60;99.90
33761;DHT22;20084;47.912;19.044;2022-08-14T03:03:46;16.50;99.90
33761;DHT22;20084;47.912;19.044;2022-08-14T03:06:13;16.50;99.90
33761;DHT22;20084;47.912;19.044;2022-08-14T03:08:40;16.50;99.90
33761;DHT22;20084;47.912;19.044;2022-08-14T03:11:09;16.50;99.90
33761;DHT22;20084;47.912;19.044;2022-08-14T03:13:40;16.40;99.90
33761;DHT22;20084;47.912;19.044;2022-08-14T03:16:09;16.40;99.90
33761;DHT22;20084;47.912;19.044;2022-08-14T03:18:40;16.50;99.90
33761;DHT22;20084;47.912;19.044;2022-08-14T03:21:14;16.40;99.90
33761;DHT22;20084;47.912;19.044;2022-08-14T03:23:41;16.40;99.90
33761;DHT22;20084;47.912;19.044;2022-08-14T03:26:12;16.50;99.90
33761;DHT22;20084;47.912;19.044;2022-08-14T03:28:40;16.40;99.90
33761;DHT22;20084;47.912;19.044;2022-08-14T03:31:07;16.40;99.90
33761;DHT22;20084;47.912;19.044;2022-08-14T03:33:33;16.40;99.90
33761;DHT22;20084;47.912;19.044;2022-08-14T03:36:08;16.40;99.90
33761;DHT22;20084;47.912;19.044;2022-08-14T03:38:37;16.40;99.90
33761;DHT22;20084;47.912;19.044;2022-08-14T03:41:13;16.40;99.90
33761;DHT22;20084;47.912;19.044;2022-08-14T03:43:41;16.40;99.90
33761;DHT22;20084;47.912;19.044;2022-08-14T03:46:07;16.40;99.90
33761;DHT22;20084;47.912;19.044;2022-08-14T03:48:34;16.40;99.90
33761;DHT22;20084;47.912;19.044;2022-08-14T03:51:00;16.40;99.90
33761;DHT22;20084;47.912;19.044;2022-08-14T03:53:26;16.30;99.90
33761;DHT22;20084;47.912;19.044;2022-08-14T03:55:52;16.30;99.90
33761;DHT22;20084;47.912;19.044;2022-08-14T03:58:23;16.30;99.90
33761;DHT22;20084;47.912;19.044;2022-08-14T04:00:49;16.20;99.90
33761;DHT22;20084;47.912;19.044;2022-08-14T04:03:14;16.10;99.90
33761;DHT22;20084;47.912;19.044;2022-08-14T04:05:40;16.10;99.90
33761;DHT22;20084;47.912;19.044;2022-08-14T04:08:07;16.10;99.90
33761;DHT22;20084;47.912;19.044;2022-08-14T04:10:33;16.10;99.90
33761;DHT22;20084;47.912;19.044;2022-08-14T04:13:00;16.10;99.90
33761;DHT22;20084;47.912;19.044;2022-08-14T04:15:26;16.20;99.90
33761;DHT22;20084;47.912;19.044;2022-08-14T04:17:53;16.20;99.90
33761;DHT22;20084;47.912;19.044;2022-08-14T04:20:20;16.20;99.90
33761;DHT22;20084;47.912;19.044;2022-08-14T04:22:46;16.20;99.90
33761;DHT22;20084;47.912;19.044;2022-08-14T04:25:15;16.30;99.90
33761;DHT22;20084;47.912;19.044;2022-08-14T04:27:40;16.30;99.90
33761;DHT22;20084;47.912;19.044;2022-08-14T04:30:06;16.40;99.90
33761;DHT22;20084;47.912;19.044;2022-08-14T04:32:33;16.40;99.90
33761;DHT22;20084;47.912;19.044;2022-08-14T04:35:00;16.50;99.90
33761;DHT22;20084;47.912;19.044;2022-08-14T04:37:26;16.50;99.90
33761;DHT22;20084;47.912;19.044;2022-08-14T04:40:10;16.60;99.90
33761;DHT22;20084;47.912;19.044;2022-08-14T04:42:55;16.70;99.90
33761;DHT22;20084;47.912;19.044;2022-08-14T04:45:40;16.80;99.90
33761;DHT22;20084;47.912;19.044;2022-08-14T04:48:13;16.90;99.90
33761;DHT22;20084;47.912;19.044;2022-08-14T04:50:45;17.00;99.90
33761;DHT22;20084;47.912;19.044;2022-08-14T04:53:14;17.20;99.90
33761;DHT22;20084;47.912;19.044;2022-08-14T04:55:41;17.30;99.90
33761;DHT22;20084;47.912;19.044;2022-08-14T04:58:07;17.40;99.90
33761;DHT22;20084;47.912;19.044;2022-08-14T05:00:34;17.40;99.90
33761;DHT22;20084;47.912;19.044;2022-08-14T05:03:00;17.50;99.90
33761;DHT22;20084;47.912;19.044;2022-08-14T05:05:29;17.50;99.90
33761;DHT22;20084;47.912;19.044;2022-08-14T05:07:54;17.70;99.90
33761;DHT22;20084;47.912;19.044;2022-08-14T05:10:20;17.90;99.90
33761;DHT22;20084;47.912;19.044;2022-08-14T05:12:50;18.10;99.90
33761;DHT22;20084;47.912;19.044;2022-08-14T05:15:17;18.30;99.90
33761;DHT22;20084;47.912;19.044;2022-08-14T05:17:45;18.40;99.90
33761;DHT22;20084;47.912;19.044;2022-08-14T05:20:11;18.50;99.90
33761;DHT22;20084;47.912;19.044;2022-08-14T05:22:37;18.70;99.90
33761;DHT22;20084;47.912;19.044;2022-08-14T05:25:03;18.80;99.90
33761;DHT22;20084;47.912;19.044;2022-08-14T05:27:29;18.90;99.90
33761;DHT22;20084;47.912;19.044;2022-08-14T05:29:55;19.00;99.90
33761;DHT22;20084;47.912;19.044;2022-08-14T05:32:22;19.00;99.90
33761;DHT22;20084;47.912;19.044;2022-08-14T05:34:47;19.10;99.90
33761;DHT22;20084;47.912;19.044;2022-08-14T05:37:13;19.20;99.90
33761;DHT22;20084;47.912;19.044;2022-08-14T05:39:39;19.40;99.90
33761;DHT22;20084;47.912;19.044;2022-08-14T05:42:08;19.60;99.90
33761;DHT22;20084;47.912;19.044;2022-08-14T05:44:33;19.70;99.90
33761;DHT22;20084;47.912;19.044;2022-08-14T05:46:59;19.90;99.90
33761;DHT22;20084;47.912;19.044;2022-08-14T05:49:26;20.00;99.90
33761;DHT22;20084;47.912;19.044;2022-08-14T05:51:52;20.10;99.90
33761;DHT22;20084;47.912;19.044;2022-08-14T05:54:18;20.30;99.90
33761;DHT22;20084;47.912;19.044;2022-08-14T05:56:43;20.40;99.90
33761;DHT22;20084;47.912;19.044;2022-08-14T05:59:10;20.60;99.90
33761;DHT22;20084;47.912;19.044;2022-08-14T06:01:36;20.80;99.90
33761;DHT22;20084;47.912;19.044;2022-08-14T06:04:02;20.90;99.90
33761;DHT22;20084;47.912;19.044;2022-08-14T06:06:28;21.00;99.90
33761;DHT22;20084;47.912;19.044;2022-08-14T06:08:53;21.20;99.90
33761;DHT22;20084;47.912;19.044;2022-08-14T06:11:19;21.30;99.90
33761;DHT22;20084;47.912;19.044;2022-08-14T06:13:45;21.40;99.90
33761;DHT22;20084;47.912;19.044;2022-08-14T06:16:10;21.50;99.90
33761;DHT22;20084;47.912;19.044;2022-08-14T06:18:36;21.60;99.90
33761;DHT22;20084;47.912;19.044;2022-08-14T06:21:03;21.60;99.90
33761;DHT22;20084;47.912;19.044;2022-08-14T06:23:29;21.80;99.90
33761;DHT22;20084;47.912;19.044;2022-08-14T06:25:55;22.00;99.90
33761;DHT22;20084;47.912;19.044;2022-08-14T06:28:25;22.10;99.90
33761;DHT22;20084;47.912;19.044;2022-08-14T06:30:51;22.30;99.90
33761;DHT22;20084;47.912;19.044;2022-08-14T06:33:18;22.40;99.90
33761;DHT22;20084;47.912;19.044;2022-08-14T06:35:45;22.40;99.90
33761;DHT22;20084;47.912;19.044;2022-08-14T06:38:20;22.40;99.90
33761;DHT22;20084;47.912;19.044;2022-08-14T06:40:47;22.50;99.90
33761;DHT22;20084;47.912;19.044;2022-08-14T06:43:13;22.60;99.90
33761;DHT22;20084;47.912;19.044;2022-08-14T06:45:42;22.70;99.90
33761;DHT22;20084;47.912;19.044;2022-08-14T06:48:15;22.90;99.90
33761;DHT22;20084;47.912;19.044;2022-08-14T06:50:42;23.00;99.90
33761;DHT22;20084;47.912;19.044;2022-08-14T06:53:07;23.10;99.90
33761;DHT22;20084;47.912;19.044;2022-08-14T06:55:33;23.20;99.90
33761;DHT22;20084;47.912;19.044;2022-08-14T06:57:59;23.40;99.90
33761;DHT22;20084;47.912;19.044;2022-08-14T07:00:27;23.50;99.90
33761;DHT22;20084;47.912;19.044;2022-08-14T07:02:53;23.70;99.90
33761;DHT22;20084;47.912;19.044;2022-08-14T07:05:38;23.90;99.90
33761;DHT22;20084;47.912;19.044;2022-08-14T07:08:18;24.10;99.90
33761;DHT22;20084;47.912;19.044;2022-08-14T07:10:49;24.20;99.90
33761;DHT22;20084;47.912;19.044;2022-08-14T07:13:16;24.30;99.90
33761;DHT22;20084;47.912;19.044;2022-08-14T07:15:46;24.30;99.90
33761;DHT22;20084;47.912;19.044;2022-08-14T07:18:21;24.30;99.90
33761;DHT22;20084;47.912;19.044;2022-08-14T07:20:47;24.50;99.50
33761;DHT22;20084;47.912;19.044;2022-08-14T07:23:13;24.60;99.40
33761;DHT22;20084;47.912;19.044;2022-08-14T07:25:41;24.70;99.50
33761;DHT22;20084;47.912;19.044;2022-08-14T07:28:12;24.90;99.20
33761;DHT22;20084;47.912;19.044;2022-08-14T07:30:38;24.90;98.40
33761;DHT22;20084;47.912;19.044;2022-08-14T07:33:05;24.90;98.90
33761;DHT22;20084;47.912;19.044;2022-08-14T07:35:32;25.00;99.00
33761;DHT22;20084;47.912;19.044;2022-08-14T07:37:58;25.10;99.00
33761;DHT22;20084;47.912;19.044;2022-08-14T07:40:24;25.20;98.30
33761;DHT22;20084;47.912;19.044;2022-08-14T07:42:50;25.30;97.70
33761;DHT22;20084;47.912;19.044;2022-08-14T07:45:17;25.50;97.20
33761;DHT22;20084;47.912;19.044;2022-08-14T07:47:42;25.50;97.00
33761;DHT22;20084;47.912;19.044;2022-08-14T07:50:16;25.60;96.40
33761;DHT22;20084;47.912;19.044;2022-08-14T07:52:46;25.50;96.10
33761;DHT22;20084;47.912;19.044;2022-08-14T07:55:14;25.50;96.20
33761;DHT22;20084;47.912;19.044;2022-08-14T07:57:41;25.60;96.00
33761;DHT22;20084;47.912;19.044;2022-08-14T08:00:13;25.80;96.30
33761;DHT22;20084;47.912;19.044;2022-08-14T08:02:42;25.90;95.50
33761;DHT22;20084;47.912;19.044;2022-08-14T08:05:09;26.10;96.10
33761;DHT22;20084;47.912;19.044;2022-08-14T08:07:35;26.10;95.30
33761;DHT22;20084;47.912;19.044;2022-08-14T08:10:25;26.20;95.20
33761;DHT22;20084;47.912;19.044;2022-08-14T08:13:10;26.20;95.20
33761;DHT22;20084;47.912;19.044;2022-08-14T08:15:46;26.50;94.70
33761;DHT22;20084;47.912;19.044;2022-08-14T08:18:13;26.90;94.10
33761;DHT22;20084;47.912;19.044;2022-08-14T08:20:49;27.30;93.40
33761;DHT22;20084;47.912;19.044;2022-08-14T08:23:17;27.40;93.00
33761;DHT22;20084;47.912;19.044;2022-08-14T08:25:46;27.60;92.70
33761;DHT22;20084;47.912;19.044;2022-08-14T08:28:20;27.70;92.00
33761;DHT22;20084;47.912;19.044;2022-08-14T08:33:13;27.80;91.70
33761;DHT22;20084;47.912;19.044;2022-08-14T08:35:41;27.50;91.50
33761;DHT22;20084;47.912;19.044;2022-08-14T08:38:12;27.30;92.70
33761;DHT22;20084;47.912;19.044;2022-08-14T08:40:44;27.40;92.70
33761;DHT22;20084;47.912;19.044;2022-08-14T08:45:43;27.90;90.70
33761;DHT22;20084;47.912;19.044;2022-08-14T08:48:08;28.10;90.90
33761;DHT22;20084;47.912;19.044;2022-08-14T08:50:36;28.20;91.00
33761;DHT22;20084;47.912;19.044;2022-08-14T08:53:07;28.30;89.10
33761;DHT22;20084;47.912;19.044;2022-08-14T08:55:38;28.40;90.40
33761;DHT22;20084;47.912;19.044;2022-08-14T08:58:09;28.40;88.30
33761;DHT22;20084;47.912;19.044;2022-08-14T09:00:36;28.40;87.70
33761;DHT22;20084;47.912;19.044;2022-08-14T09:03:14;28.50;87.90
33761;DHT22;20084;47.912;19.044;2022-08-14T09:06:03;28.60;88.00
33761;DHT22;20084;47.912;19.044;2022-08-14T09:08:31;28.60;87.70
33761;DHT22;20084;47.912;19.044;2022-08-14T09:10:57;28.60;85.30
33761;DHT22;20084;47.912;19.044;2022-08-14T09:13:24;28.60;84.60
33761;DHT22;20084;47.912;19.044;2022-08-14T09:15:53;28.70;84.10
33761;DHT22;20084;47.912;19.044;2022-08-14T09:18:20;28.80;83.80
33761;DHT22;20084;47.912;19.044;2022-08-14T09:20:50;28.70;82.70
33761;DHT22;20084;47.912;19.044;2022-08-14T09:23:16;28.60;84.30
33761;DHT22;20084;47.912;19.044;2022-08-14T09:25:45;28.60;85.50
33761;DHT22;20084;47.912;19.044;2022-08-14T09:28:12;28.70;85.00
33761;DHT22;20084;47.912;19.044;2022-08-14T09:30:41;28.90;83.50
33761;DHT22;20084;47.912;19.044;2022-08-14T09:46:57;28.90;80.90
33761;DHT22;20084;47.912;19.044;2022-08-14T09:49:34;28.80;77.70
33761;DHT22;20084;47.912;19.044;2022-08-14T09:52:19;28.70;77.30
33761;DHT22;20084;47.912;19.044;2022-08-14T09:54:46;28.60;77.10
33761;DHT22;20084;47.912;19.044;2022-08-14T09:57:27;28.50;78.80
33761;DHT22;20084;47.912;19.044;2022-08-14T09:59:54;28.60;79.70
33761;DHT22;20084;47.912;19.044;2022-08-14T10:02:24;28.70;76.70
33761;DHT22;20084;47.912;19.044;2022-08-14T10:05:03;28.80;74.60
33761;DHT22;20084;47.912;19.044;2022-08-14T10:07:55;28.80;71.70
33761;DHT22;20084;47.912;19.044;2022-08-14T10:10:34;28.90;75.30
33761;DHT22;20084;47.912;19.044;2022-08-14T10:13:02;29.30;73.10
33761;DHT22;20084;47.912;19.044;2022-08-14T10:15:29;29.50;71.80
33761;DHT22;20084;47.912;19.044;2022-08-14T10:18:04;29.70;70.60
33761;DHT22;20084;47.912;19.044;2022-08-14T10:20:33;29.90;69.10
33761;DHT22;20084;47.912;19.044;2022-08-14T10:23:17;30.10;69.00
33761;DHT22;20084;47.912;19.044;2022-08-14T10:25:48;30.20;68.70
33761;DHT22;20084;47.912;19.044;2022-08-14T10:28:16;30.30;68.70
33761;DHT22;20084;47.912;19.044;2022-08-14T10:30:44;30.10;67.30
33761;DHT22;20084;47.912;19.044;2022-08-14T10:33:30;29.60;69.70
33761;DHT22;20084;47.912;19.044;2022-08-14T10:35:57;29.40;70.60
33761;DHT22;20084;47.912;19.044;2022-08-14T10:38:34;29.20;72.40
33761;DHT22;20084;47.912;19.044;2022-08-14T10:41:14;28.90;72.50
33761;DHT22;20084;47.912;19.044;2022-08-14T10:43:42;28.60;72.40
33761;DHT22;20084;47.912;19.044;2022-08-14T10:46:16;28.50;74.00
33761;DHT22;20084;47.912;19.044;2022-08-14T10:49:02;28.40;73.60
33761;DHT22;20084;47.912;19.044;2022-08-14T10:51:29;28.50;72.50
33761;DHT22;20084;47.912;19.044;2022-08-14T10:54:05;28.60;74.30
33761;DHT22;20084;47.912;19.044;2022-08-14T10:56:34;28.70;73.90
33761;DHT22;20084;47.912;19.044;2022-08-14T10:59:04;28.50;71.60
33761;DHT22;20084;47.912;19.044;2022-08-14T11:01:33;28.40;70.40
33761;DHT22;20084;47.912;19.044;2022-08-14T11:03:59;28.20;72.10
33761;DHT22;20084;47.912;19.044;2022-08-14T11:06:26;28.20;73.10
33761;DHT22;20084;47.912;19.044;2022-08-14T11:08:51;28.30;73.60
33761;DHT22;20084;47.912;19.044;2022-08-14T11:11:18;28.50;75.60
33761;DHT22;20084;47.912;19.044;2022-08-14T11:13:44;28.70;71.70
33761;DHT22;20084;47.912;19.044;2022-08-14T11:16:12;28.80;69.60
33761;DHT22;20084;47.912;19.044;2022-08-14T11:18:40;28.90;71.80
33761;DHT22;20084;47.912;19.044;2022-08-14T11:21:08;28.90;68.00
33761;DHT22;20084;47.912;19.044;2022-08-14T11:23:38;28.90;71.60
33761;DHT22;20084;47.912;19.044;2022-08-14T11:26:04;29.10;68.40
33761;DHT22;20084;47.912;19.044;2022-08-14T11:28:38;29.10;69.70
33761;DHT22;20084;47.912;19.044;2022-08-14T11:31:06;29.10;66.50
33761;DHT22;20084;47.912;19.044;2022-08-14T11:33:33;29.10;65.70
33761;DHT22;20084;47.912;19.044;2022-08-14T11:36:02;29.20;65.40
33761;DHT22;20084;47.912;19.044;2022-08-14T11:38:37;29.10;65.40
33761;DHT22;20084;47.912;19.044;2022-08-14T11:41:03;29.00;66.70
33761;DHT22;20084;47.912;19.044;2022-08-14T11:43:30;28.90;67.50
33761;DHT22;20084;47.912;19.044;2022-08-14T11:45:56;28.90;69.10
33761;DHT22;20084;47.912;19.044;2022-08-14T11:48:24;28.80;70.50
33761;DHT22;20084;47.912;19.044;2022-08-14T11:50:51;28.80;70.50
33761;DHT22;20084;47.912;19.044;2022-08-14T11:55:44;28.80;70.80
33761;DHT22;20084;47.912;19.044;2022-08-14T11:58:11;28.80;70.50
33761;DHT22;20084;47.912;19.044;2022-08-14T12:00:48;28.60;69.10
33761;DHT22;20084;47.912;19.044;2022-08-14T12:03:13;28.40;69.20
33761;DHT22;20084;47.912;19.044;2022-08-14T12:05:40;28.30;70.60
33761;DHT22;20084;47.912;19.044;2022-08-14T12:08:08;28.10;69.50
33761;DHT22;20084;47.912;19.044;2022-08-14T12:10:39;28.00;70.10
33761;DHT22;20084;47.912;19.044;2022-08-14T12:13:13;28.00;70.60
33761;DHT22;20084;47.912;19.044;2022-08-14T12:15:41;27.90;69.60
33761;DHT22;20084;47.912;19.044;2022-08-14T12:18:07;27.90;70.90
33761;DHT22;20084;47.912;19.044;2022-08-14T12:20:35;27.90;71.00
33761;DHT22;20084;47.912;19.044;2022-08-14T12:23:06;28.10;70.30
33761;DHT22;20084;47.912;19.044;2022-08-14T12:25:33;28.30;68.60
33761;DHT22;20084;47.912;19.044;2022-08-14T12:28:03;28.40;67.50
33761;DHT22;20084;47.912;19.044;2022-08-14T12:30:40;28.60;67.20
33761;DHT22;20084;47.912;19.044;2022-08-14T12:35:50;29.00;60.10
33761;DHT22;20084;47.912;19.044;2022-08-14T12:38:16;29.00;61.30
33761;DHT22;20084;47.912;19.044;2022-08-14T12:40:52;29.10;62.60
33761;DHT22;20084;47.912;19.044;2022-08-14T12:43:19;29.20;61.00
33761;DHT22;20084;47.912;19.044;2022-08-14T12:45:51;29.20;59.90
33761;DHT22;20084;47.912;19.044;2022-08-14T12:48:20;29.30;59.10
33761;DHT22;20084;47.912;19.044;2022-08-14T12:50:46;29.30;60.50
33761;DHT22;20084;47.912;19.044;2022-08-14T12:53:12;29.30;60.30
33761;DHT22;20084;47.912;19.044;2022-08-14T12:55:40;29.30;59.50
33761;DHT22;20084;47.912;19.044;2022-08-14T12:58:06;29.40;61.00
33761;DHT22;20084;47.912;19.044;2022-08-14T13:00:35;29.30;59.50
33761;DHT22;20084;47.912;19.044;2022-08-14T13:03:02;29.30;60.80
33761;DHT22;20084;47.912;19.044;2022-08-14T13:05:31;29.20;59.90
33761;DHT22;20084;47.912;19.044;2022-08-14T13:07:59;29.30;58.90
33761;DHT22;20084;47.912;19.044;2022-08-14T13:10:32;29.40;59.20
33761;DHT22;20084;47.912;19.044;2022-08-14T13:12:58;29.50;61.70
33761;DHT22;20084;47.912;19.044;2022-08-14T13:15:25;29.60;58.90
33761;DHT22;20084;47.912;19.044;2022-08-14T13:17:53;29.70;58.60
33761;DHT22;20084;47.912;19.044;2022-08-14T13:20:24;29.80;58.90
33761;DHT22;20084;47.912;19.044;2022-08-14T13:22:51;29.80;57.40
33761;DHT22;20084;47.912;19.044;2022-08-14T13:25:20;29.80;57.60
33761;DHT22;20084;47.912;19.044;2022-08-14T13:27:49;29.80;56.60
33761;DHT22;20084;47.912;19.044;2022-08-14T13:30:16;29.80;57.10
33761;DHT22;20084;47.912;19.044;2022-08-14T13:32:43;29.80;59.20
33761;DHT22;20084;47.912;19.044;2022-08-14T13:35:14;29.90;59.20
33761;DHT22;20084;47.912;19.044;2022-08-14T13:37:44;30.00;60.20
33761;DHT22;20084;47.912;19.044;2022-08-14T13:40:11;30.20;58.50
33761;DHT22;20084;47.912;19.044;2022-08-14T13:42:42;30.20;59.60
33761;DHT22;20084;47.912;19.044;2022-08-14T13:45:10;30.10;58.50
33761;DHT22;20084;47.912;19.044;2022-08-14T13:47:36;29.90;58.20
33761;DHT22;20084;47.912;19.044;2022-08-14T13:50:05;29.90;57.60
33761;DHT22;20084;47.912;19.044;2022-08-14T13:52:52;29.90;57.10
33761;DHT22;20084;47.912;19.044;2022-08-14T13:55:20;29.80;58.60
33761;DHT22;20084;47.912;19.044;2022-08-14T13:57:48;29.90;57.50
33761;DHT22;20084;47.912;19.044;2022-08-14T14:00:15;29.80;57.60
33761;DHT22;20084;47.912;19.044;2022-08-14T14:02:43;29.90;59.60
33761;DHT22;20084;47.912;19.044;2022-08-14T14:05:12;29.90;59.20
33761;DHT22;20084;47.912;19.044;2022-08-14T14:07:48;30.00;60.20
33761;DHT22;20084;47.912;19.044;2022-08-14T14:10:16;29.80;61.30
33761;DHT22;20084;47.912;19.044;2022-08-14T14:12:43;29.80;60.90
33761;DHT22;20084;47.912;19.044;2022-08-14T14:15:14;29.90;59.70
33761;DHT22;20084;47.912;19.044;2022-08-14T14:17:41;29.90;59.60
33761;DHT22;20084;47.912;19.044;2022-08-14T14:20:10;29.90;59.40
33761;DHT22;20084;47.912;19.044;2022-08-14T14:22:40;30.10;59.70
33761;DHT22;20084;47.912;19.044;2022-08-14T14:25:06;30.20;59.60
33761;DHT22;20084;47.912;19.044;2022-08-14T14:27:32;30.20;57.40
33761;DHT22;20084;47.912;19.044;2022-08-14T14:30:02;30.20;56.40
33761;DHT22;20084;47.912;19.044;2022-08-14T14:32:30;30.30;58.50
33761;DHT22;20084;47.912;19.044;2022-08-14T14:34:59;30.30;59.00
33761;DHT22;20084;47.912;19.044;2022-08-14T14:37:27;30.30;59.90
33761;DHT22;20084;47.912;19.044;2022-08-14T14:39:55;30.40;58.90
33761;DHT22;20084;47.912;19.044;2022-08-14T14:42:28;30.30;60.00
33761;DHT22;20084;47.912;19.044;2022-08-14T14:45:04;30.10;61.60
33761;DHT22;20084;47.912;19.044;2022-08-14T14:47:31;29.90;60.00
33761;DHT22;20084;47.912;19.044;2022-08-14T14:49:59;29.70;62.80
33761;DHT22;20084;47.912;19.044;2022-08-14T14:52:25;29.50;65.40
33761;DHT22;20084;47.912;19.044;2022-08-14T14:54:51;29.30;65.80
33761;DHT22;20084;47.912;19.044;2022-08-14T14:57:17;29.10;67.10
33761;DHT22;20084;47.912;19.044;2022-08-14T14:59:43;29.00;67.30
33761;DHT22;20084;47.912;19.044;2022-08-14T15:02:33;28.90;68.00
33761;DHT22;20084;47.912;19.044;2022-08-14T15:04:59;28.80;69.50
33761;DHT22;20084;47.912;19.044;2022-08-14T15:07:25;28.70;69.50
33761;DHT22;20084;47.912;19.044;2022-08-14T15:09:51;28.70;68.90
33761;DHT22;20084;47.912;19.044;2022-08-14T15:12:16;28.60;68.80
33761;DHT22;20084;47.912;19.044;2022-08-14T15:14:42;28.60;69.20
33761;DHT22;20084;47.912;19.044;2022-08-14T15:17:08;28.60;70.00
33761;DHT22;20084;47.912;19.044;2022-08-14T15:19:34;28.50;68.50
33761;DHT22;20084;47.912;19.044;2022-08-14T15:22:00;28.50;71.40
33761;DHT22;20084;47.912;19.044;2022-08-14T15:24:25;28.50;75.20
33761;DHT22;20084;47.912;19.044;2022-08-14T15:26:51;28.50;77.20
33761;DHT22;20084;47.912;19.044;2022-08-14T15:29:17;28.40;76.80
33761;DHT22;20084;47.912;19.044;2022-08-14T15:31:42;28.40;77.40
33761;DHT22;20084;47.912;19.044;2022-08-14T15:34:08;28.30;77.70
33761;DHT22;20084;47.912;19.044;2022-08-14T15:36:40;28.30;77.90
33761;DHT22;20084;47.912;19.044;2022-08-14T15:39:07;28.30;77.30
33761;DHT22;20084;47.912;19.044;2022-08-14T15:41:33;28.30;76.40
33761;DHT22;20084;47.912;19.044;2022-08-14T15:43:59;28.20;75.90
33761;DHT22;20084;47.912;19.044;2022-08-14T15:46:25;28.20;74.30
33761;DHT22;20084;47.912;19.044;2022-08-14T15:48:51;28.20;73.80